sensor_id;sensor_type;location;lat;lon;timestamp;P1;durP1;ratioP1;P2;durP2;ratioP2
12848;SDS011;6493;50.928;7.172;2023-03-03T00:00:16;2.80;;;2.43;;
12848;SDS011;6493;50.928;7.172;2023-03-03T00:05:21;2.80;;;2.30;;
12848;SDS011;6493;50.928;7.172;2023-03-03T00:10:25;3.10;;;2.17;;
12848;SDS011;6493;50.928;7.172;2023-03-03T00:15:29;3.50;;;2.63;;
12848;SDS011;6493;50.928;7.172;2023-03-03T00:20:36;4.67;;;2.90;;
12848;SDS011;6493;50.928;7.172;2023-03-03T00:25:42;3.20;;;2.80;;
12848;SDS011;6493;50.928;7.172;2023-03-03T00:30:48;3.63;;;2.77;;
12848;SDS011;6493;50.928;7.172;2023-03-03T00:35:53;3.67;;;2.80;;
12848;SDS011;6493;50.928;7.172;2023-03-03T00:40:58;3.87;;;3.03;;
12848;SDS011;6493;50.928;7.172;2023-03-03T00:46:02;3.73;;;2.80;;
12848;SDS011;6493;50.928;7.172;2023-03-03T00:51:09;3.87;;;2.43;;
12848;SDS011;6493;50.928;7.172;2023-03-03T00:56:27;4.23;;;3.37;;
12848;SDS011;6493;50.928;7.172;2023-03-03T01:01:31;4.63;;;3.23;;
12848;SDS011;6493;50.928;7.172;2023-03-03T01:06:37;4.00;;;3.23;;
12848;SDS011;6493;50.928;7.172;2023-03-03T01:11:40;5.03;;;3.83;;
12848;SDS011;6493;50.928;7.172;2023-03-03T01:16:44;4.90;;;3.67;;
12848;SDS011;6493;50.928;7.172;2023-03-03T01:21:49;4.70;;;3.43;;
12848;SDS011;6493;50.928;7.172;2023-03-03T01:26:53;3.90;;;3.13;;
12848;SDS011;6493;50.928;7.172;2023-03-03T01:31:57;5.03;;;3.50;;
12848;SDS011;6493;50.928;7.172;2023-03-03T01:37:03;4.33;;;3.30;;
12848;SDS011;6493;50.928;7.172;2023-03-03T01:42:06;4.43;;;3.50;;
12848;SDS011;6493;50.928;7.172;2023-03-03T01:47:10;5.00;;;3.63;;
12848;SDS011;6493;50.928;7.172;2023-03-03T01:52:21;4.63;;;3.43;;
12848;SDS011;6493;50.928;7.172;2023-03-03T01:57:30;4.63;;;3.17;;
12848;SDS011;6493;50.928;7.172;2023-03-03T02:02:37;3.87;;;2.90;;
12848;SDS011;6493;50.928;7.172;2023-03-03T02:07:43;3.77;;;3.17;;
12848;SDS011;6493;50.928;7.172;2023-03-03T02:12:48;4.13;;;3.07;;
12848;SDS011;6493;50.928;7.172;2023-03-03T02:17:53;4.57;;;3.63;;
12848;SDS011;6493;50.928;7.172;2023-03-03T02:23:02;4.47;;;3.37;;
12848;SDS011;6493;50.928;7.172;2023-03-03T02:28:11;4.93;;;3.73;;
12848;SDS011;6493;50.928;7.172;2023-03-03T02:33:15;5.10;;;3.60;;
12848;SDS011;6493;50.928;7.172;2023-03-03T02:38:20;5.03;;;4.10;;
12848;SDS011;6493;50.928;7.172;2023-03-03T02:43:30;6.53;;;4.70;;
12848;SDS011;6493;50.928;7.172;2023-03-03T02:48:39;6.37;;;4.50;;
12848;SDS011;6493;50.928;7.172;2023-03-03T02:53:44;8.87;;;6.20;;
12848;SDS011;6493;50.928;7.172;2023-03-03T02:58:49;8.10;;;5.03;;
12848;SDS011;6493;50.928;7.172;2023-03-03T03:03:55;6.93;;;5.00;;
12848;SDS011;6493;50.928;7.172;2023-03-03T03:08:59;9.40;;;6.50;;
12848;SDS011;6493;50.928;7.172;2023-03-03T03:14:05;9.47;;;7.17;;
12848;SDS011;6493;50.928;7.172;2023-03-03T03:19:10;9.17;;;6.37;;
12848;SDS011;6493;50.928;7.172;2023-03-03T03:24:15;8.23;;;5.60;;
12848;SDS011;6493;50.928;7.172;2023-03-03T03:29:26;6.50;;;4.70;;
12848;SDS011;6493;50.928;7.172;2023-03-03T03:34:30;7.47;;;5.67;;
12848;SDS011;6493;50.928;7.172;2023-03-03T03:39:34;8.27;;;5.70;;
12848;SDS011;6493;50.928;7.172;2023-03-03T03:44:39;9.27;;;5.93;;
12848;SDS011;6493;50.928;7.172;2023-03-03T03:49:43;5.77;;;4.47;;
12848;SDS011;6493;50.928;7.172;2023-03-03T03:54:48;4.80;;;3.83;;
12848;SDS011;6493;50.928;7.172;2023-03-03T03:59:53;6.50;;;3.97;;
12848;SDS011;6493;50.928;7.172;2023-03-03T04:04:57;5.10;;;3.63;;
12848;SDS011;6493;50.928;7.172;2023-03-03T04:10:02;4.97;;;3.60;;
12848;SDS011;6493;50.928;7.172;2023-03-03T04:15:09;4.47;;;3.00;;
12848;SDS011;6493;50.928;7.172;2023-03-03T04:20:14;4.10;;;2.93;;
12848;SDS011;6493;50.928;7.172;2023-03-03T04:25:20;4.20;;;2.93;;
12848;SDS011;6493;50.928;7.172;2023-03-03T04:30:27;3.23;;;2.43;;
12848;SDS011;6493;50.928;7.172;2023-03-03T04:35:31;4.13;;;2.70;;
12848;SDS011;6493;50.928;7.172;2023-03-03T04:40:36;4.53;;;3.20;;
12848;SDS011;6493;50.928;7.172;2023-03-03T04:45:44;4.27;;;2.80;;
12848;SDS011;6493;50.928;7.172;2023-03-03T04:50:48;4.93;;;3.20;;
12848;SDS011;6493;50.928;7.172;2023-03-03T04:55:53;3.23;;;2.33;;
12848;SDS011;6493;50.928;7.172;2023-03-03T05:00:59;4.13;;;2.63;;
12848;SDS011;6493;50.928;7.172;2023-03-03T05:06:05;4.43;;;2.80;;
12848;SDS011;6493;50.928;7.172;2023-03-03T05:11:09;4.07;;;2.90;;
12848;SDS011;6493;50.928;7.172;2023-03-03T05:16:14;3.80;;;2.97;;
12848;SDS011;6493;50.928;7.172;2023-03-03T05:21:18;4.33;;;2.77;;
12848;SDS011;6493;50.928;7.172;2023-03-03T05:26:21;3.47;;;2.63;;
12848;SDS011;6493;50.928;7.172;2023-03-03T05:31:26;3.70;;;2.47;;
12848;SDS011;6493;50.928;7.172;2023-03-03T05:36:30;4.30;;;3.00;;
12848;SDS011;6493;50.928;7.172;2023-03-03T05:41:33;3.90;;;2.90;;
12848;SDS011;6493;50.928;7.172;2023-03-03T05:46:39;3.30;;;2.60;;
12848;SDS011;6493;50.928;7.172;2023-03-03T05:51:43;5.50;;;3.53;;
12848;SDS011;6493;50.928;7.172;2023-03-03T05:56:47;4.13;;;2.67;;
12848;SDS011;6493;50.928;7.172;2023-03-03T06:01:52;3.80;;;2.63;;
12848;SDS011;6493;50.928;7.172;2023-03-03T06:06:56;4.30;;;3.10;;
12848;SDS011;6493;50.928;7.172;2023-03-03T06:12:00;5.20;;;3.70;;
12848;SDS011;6493;50.928;7.172;2023-03-03T06:17:05;6.80;;;4.47;;
12848;SDS011;6493;50.928;7.172;2023-03-03T06:22:09;4.60;;;3.20;;
12848;SDS011;6493;50.928;7.172;2023-03-03T06:27:13;4.30;;;3.00;;
12848;SDS011;6493;50.928;7.172;2023-03-03T06:32:18;3.33;;;2.23;;
12848;SDS011;6493;50.928;7.172;2023-03-03T06:37:21;2.80;;;2.23;;
12848;SDS011;6493;50.928;7.172;2023-03-03T06:42:25;5.33;;;3.30;;
12848;SDS011;6493;50.928;7.172;2023-03-03T06:47:30;4.73;;;3.73;;
12848;SDS011;6493;50.928;7.172;2023-03-03T06:52:34;5.37;;;3.60;;
12848;SDS011;6493;50.928;7.172;2023-03-03T06:57:38;5.10;;;3.63;;
12848;SDS011;6493;50.928;7.172;2023-03-03T07:02:44;4.97;;;3.60;;
12848;SDS011;6493;50.928;7.172;2023-03-03T07:07:48;5.10;;;3.43;;
12848;SDS011;6493;50.928;7.172;2023-03-03T07:12:52;4.43;;;2.53;;
12848;SDS011;6493;50.928;7.172;2023-03-03T07:18:00;2.83;;;2.23;;
12848;SDS011;6493;50.928;7.172;2023-03-03T07:23:09;6.30;;;3.97;;
12848;SDS011;6493;50.928;7.172;2023-03-03T07:28:23;5.67;;;3.90;;
12848;SDS011;6493;50.928;7.172;2023-03-03T07:33:30;3.57;;;2.77;;
12848;SDS011;6493;50.928;7.172;2023-03-03T07:38:39;3.53;;;2.67;;
12848;SDS011;6493;50.928;7.172;2023-03-03T07:43:48;4.90;;;3.80;;
12848;SDS011;6493;50.928;7.172;2023-03-03T07:48:57;3.67;;;3.10;;
12848;SDS011;6493;50.928;7.172;2023-03-03T07:54:12;5.67;;;3.93;;
12848;SDS011;6493;50.928;7.172;2023-03-03T07:59:23;6.03;;;3.53;;
12848;SDS011;6493;50.928;7.172;2023-03-03T08:04:31;3.33;;;2.80;;
12848;SDS011;6493;50.928;7.172;2023-03-03T08:09:47;3.30;;;2.40;;
12848;SDS011;6493;50.928;7.172;2023-03-03T08:14:53;4.33;;;2.40;;
12848;SDS011;6493;50.928;7.172;2023-03-03T08:19:59;5.57;;;4.00;;
12848;SDS011;6493;50.928;7.172;2023-03-03T08:25:04;4.47;;;3.57;;
12848;SDS011;6493;50.928;7.172;2023-03-03T08:30:08;7.60;;;5.03;;
12848;SDS011;6493;50.928;7.172;2023-03-03T08:35:14;5.13;;;3.70;;
12848;SDS011;6493;50.928;7.172;2023-03-03T08:40:18;6.47;;;4.30;;
12848;SDS011;6493;50.928;7.172;2023-03-03T08:45:21;3.97;;;2.77;;
12848;SDS011;6493;50.928;7.172;2023-03-03T08:50:27;2.77;;;1.90;;
12848;SDS011;6493;50.928;7.172;2023-03-03T08:55:31;3.33;;;2.50;;
12848;SDS011;6493;50.928;7.172;2023-03-03T09:00:35;3.23;;;2.20;;
12848;SDS011;6493;50.928;7.172;2023-03-03T09:05:41;3.57;;;2.63;;
12848;SDS011;6493;50.928;7.172;2023-03-03T09:10:45;5.00;;;3.20;;
12848;SDS011;6493;50.928;7.172;2023-03-03T09:15:49;3.83;;;2.43;;
12848;SDS011;6493;50.928;7.172;2023-03-03T09:20:54;3.40;;;2.07;;
12848;SDS011;6493;50.928;7.172;2023-03-03T09:26:05;3.13;;;2.20;;
12848;SDS011;6493;50.928;7.172;2023-03-03T09:31:30;3.80;;;2.87;;
12848;SDS011;6493;50.928;7.172;2023-03-03T09:36:41;2.93;;;2.20;;
12848;SDS011;6493;50.928;7.172;2023-03-03T09:41:49;3.80;;;2.40;;
12848;SDS011;6493;50.928;7.172;2023-03-03T09:47:29;3.40;;;2.60;;
12848;SDS011;6493;50.928;7.172;2023-03-03T09:52:47;3.60;;;2.90;;
12848;SDS011;6493;50.928;7.172;2023-03-03T09:58:03;3.70;;;2.40;;
12848;SDS011;6493;50.928;7.172;2023-03-03T10:03:33;4.30;;;3.00;;
12848;SDS011;6493;50.928;7.172;2023-03-03T10:09:00;3.17;;;2.17;;
12848;SDS011;6493;50.928;7.172;2023-03-03T10:14:24;2.63;;;2.23;;
12848;SDS011;6493;50.928;7.172;2023-03-03T10:19:54;2.73;;;2.40;;
12848;SDS011;6493;50.928;7.172;2023-03-03T10:25:18;2.70;;;2.17;;
12848;SDS011;6493;50.928;7.172;2023-03-03T10:30:31;2.50;;;2.20;;
12848;SDS011;6493;50.928;7.172;2023-03-03T10:36:06;2.70;;;2.37;;
12848;SDS011;6493;50.928;7.172;2023-03-03T10:41:27;2.50;;;2.30;;
12848;SDS011;6493;50.928;7.172;2023-03-03T10:46:45;3.57;;;2.50;;
12848;SDS011;6493;50.928;7.172;2023-03-03T10:52:02;3.80;;;3.27;;
12848;SDS011;6493;50.928;7.172;2023-03-03T10:57:33;4.00;;;3.37;;
12848;SDS011;6493;50.928;7.172;2023-03-03T11:02:46;3.23;;;2.40;;
12848;SDS011;6493;50.928;7.172;2023-03-03T11:08:14;2.77;;;2.20;;
12848;SDS011;6493;50.928;7.172;2023-03-03T11:13:25;2.80;;;2.27;;
12848;SDS011;6493;50.928;7.172;2023-03-03T11:18:42;2.70;;;2.30;;
12848;SDS011;6493;50.928;7.172;2023-03-03T11:23:59;7.60;;;6.07;;
12848;SDS011;6493;50.928;7.172;2023-03-03T11:29:34;7.57;;;4.30;;
12848;SDS011;6493;50.928;7.172;2023-03-03T11:34:54;5.30;;;4.33;;
12848;SDS011;6493;50.928;7.172;2023-03-03T11:40:11;4.30;;;3.63;;
12848;SDS011;6493;50.928;7.172;2023-03-03T11:45:21;3.87;;;3.10;;
12848;SDS011;6493;50.928;7.172;2023-03-03T11:50:30;4.67;;;3.33;;
12848;SDS011;6493;50.928;7.172;2023-03-03T11:55:38;2.97;;;2.47;;
12848;SDS011;6493;50.928;7.172;2023-03-03T12:00:46;3.53;;;3.07;;
12848;SDS011;6493;50.928;7.172;2023-03-03T12:05:54;4.00;;;3.23;;
12848;SDS011;6493;50.928;7.172;2023-03-03T12:11:05;2.97;;;2.20;;
12848;SDS011;6493;50.928;7.172;2023-03-03T12:16:14;4.03;;;2.87;;
12848;SDS011;6493;50.928;7.172;2023-03-03T12:21:27;5.10;;;4.03;;
12848;SDS011;6493;50.928;7.172;2023-03-03T12:26:43;3.70;;;3.30;;
12848;SDS011;6493;50.928;7.172;2023-03-03T12:31:58;3.20;;;2.67;;
12848;SDS011;6493;50.928;7.172;2023-03-03T12:37:15;3.17;;;2.40;;
12848;SDS011;6493;50.928;7.172;2023-03-03T12:42:35;4.83;;;3.83;;
12848;SDS011;6493;50.928;7.172;2023-03-03T12:47:48;5.03;;;3.73;;
12848;SDS011;6493;50.928;7.172;2023-03-03T12:52:55;4.23;;;3.23;;
12848;SDS011;6493;50.928;7.172;2023-03-03T12:58:12;3.87;;;3.27;;
12848;SDS011;6493;50.928;7.172;2023-03-03T13:03:31;4.87;;;2.80;;
12848;SDS011;6493;50.928;7.172;2023-03-03T13:09:06;3.40;;;2.57;;
12848;SDS011;6493;50.928;7.172;2023-03-03T13:14:22;3.07;;;2.57;;
12848;SDS011;6493;50.928;7.172;2023-03-03T13:19:39;4.10;;;2.97;;
12848;SDS011;6493;50.928;7.172;2023-03-03T13:24:52;5.57;;;4.93;;
12848;SDS011;6493;50.928;7.172;2023-03-03T13:29:59;4.17;;;3.57;;
12848;SDS011;6493;50.928;7.172;2023-03-03T13:35:07;3.23;;;2.70;;
12848;SDS011;6493;50.928;7.172;2023-03-03T13:40:20;4.13;;;3.47;;
12848;SDS011;6493;50.928;7.172;2023-03-03T13:45:29;5.03;;;4.20;;
12848;SDS011;6493;50.928;7.172;2023-03-03T13:50:41;4.47;;;3.70;;
12848;SDS011;6493;50.928;7.172;2023-03-03T13:55:53;4.57;;;3.47;;
12848;SDS011;6493;50.928;7.172;2023-03-03T14:01:08;3.90;;;3.50;;
12848;SDS011;6493;50.928;7.172;2023-03-03T14:06:23;4.63;;;3.27;;
12848;SDS011;6493;50.928;7.172;2023-03-03T14:11:29;5.37;;;3.73;;
12848;SDS011;6493;50.928;7.172;2023-03-03T14:16:42;6.03;;;4.10;;
12848;SDS011;6493;50.928;7.172;2023-03-03T14:22:01;5.20;;;3.83;;
12848;SDS011;6493;50.928;7.172;2023-03-03T14:27:14;5.73;;;4.23;;
12848;SDS011;6493;50.928;7.172;2023-03-03T14:32:26;5.67;;;4.13;;
12848;SDS011;6493;50.928;7.172;2023-03-03T14:37:47;5.03;;;3.93;;
12848;SDS011;6493;50.928;7.172;2023-03-03T14:42:53;6.23;;;4.50;;
12848;SDS011;6493;50.928;7.172;2023-03-03T14:47:58;6.50;;;4.57;;
12848;SDS011;6493;50.928;7.172;2023-03-03T14:53:11;6.60;;;4.50;;
12848;SDS011;6493;50.928;7.172;2023-03-03T14:58:28;7.90;;;4.83;;
12848;SDS011;6493;50.928;7.172;2023-03-03T15:03:46;6.40;;;4.73;;
12848;SDS011;6493;50.928;7.172;2023-03-03T15:08:54;6.13;;;4.53;;
12848;SDS011;6493;50.928;7.172;2023-03-03T15:14:09;6.60;;;4.93;;
12848;SDS011;6493;50.928;7.172;2023-03-03T15:19:21;7.90;;;5.57;;
12848;SDS011;6493;50.928;7.172;2023-03-03T15:24:38;6.63;;;4.27;;
12848;SDS011;6493;50.928;7.172;2023-03-03T15:29:49;7.30;;;5.03;;
12848;SDS011;6493;50.928;7.172;2023-03-03T15:35:05;5.83;;;4.03;;
12848;SDS011;6493;50.928;7.172;2023-03-03T15:40:23;6.03;;;4.40;;
12848;SDS011;6493;50.928;7.172;2023-03-03T15:45:30;6.63;;;4.27;;
12848;SDS011;6493;50.928;7.172;2023-03-03T15:50:42;9.50;;;6.20;;
12848;SDS011;6493;50.928;7.172;2023-03-03T15:55:58;8.83;;;6.03;;
12848;SDS011;6493;50.928;7.172;2023-03-03T16:01:11;8.43;;;5.00;;
12848;SDS011;6493;50.928;7.172;2023-03-03T16:06:21;8.73;;;5.57;;
12848;SDS011;6493;50.928;7.172;2023-03-03T16:11:38;10.53;;;6.50;;
12848;SDS011;6493;50.928;7.172;2023-03-03T16:16:48;9.20;;;5.33;;
12848;SDS011;6493;50.928;7.172;2023-03-03T16:27:33;7.43;;;5.07;;
12848;SDS011;6493;50.928;7.172;2023-03-03T16:32:42;6.87;;;4.50;;
12848;SDS011;6493;50.928;7.172;2023-03-03T16:37:57;9.80;;;6.30;;
12848;SDS011;6493;50.928;7.172;2023-03-03T16:43:09;6.67;;;4.63;;
12848;SDS011;6493;50.928;7.172;2023-03-03T16:48:20;5.67;;;3.70;;
12848;SDS011;6493;50.928;7.172;2023-03-03T16:53:34;6.43;;;3.80;;
12848;SDS011;6493;50.928;7.172;2023-03-03T16:58:58;6.70;;;3.93;;
12848;SDS011;6493;50.928;7.172;2023-03-03T17:04:08;5.87;;;3.50;;
12848;SDS011;6493;50.928;7.172;2023-03-03T17:14:54;3.87;;;3.03;;
12848;SDS011;6493;50.928;7.172;2023-03-03T17:20:15;5.47;;;3.80;;
12848;SDS011;6493;50.928;7.172;2023-03-03T17:25:33;6.63;;;3.90;;
12848;SDS011;6493;50.928;7.172;2023-03-03T17:30:50;6.57;;;3.30;;
12848;SDS011;6493;50.928;7.172;2023-03-03T17:36:07;5.23;;;3.03;;
12848;SDS011;6493;50.928;7.172;2023-03-03T17:41:20;6.13;;;3.17;;
12848;SDS011;6493;50.928;7.172;2023-03-03T17:46:31;5.33;;;3.13;;
12848;SDS011;6493;50.928;7.172;2023-03-03T17:57:21;4.63;;;2.83;;
12848;SDS011;6493;50.928;7.172;2023-03-03T18:02:47;4.70;;;2.60;;
12848;SDS011;6493;50.928;7.172;2023-03-03T18:08:23;5.50;;;2.87;;
12848;SDS011;6493;50.928;7.172;2023-03-03T18:13:41;4.60;;;2.90;;
12848;SDS011;6493;50.928;7.172;2023-03-03T18:18:59;5.90;;;3.47;;
12848;SDS011;6493;50.928;7.172;2023-03-03T18:24:26;3.73;;;2.70;;
12848;SDS011;6493;50.928;7.172;2023-03-03T18:29:35;4.87;;;3.17;;
12848;SDS011;6493;50.928;7.172;2023-03-03T18:34:40;4.57;;;2.70;;
12848;SDS011;6493;50.928;7.172;2023-03-03T18:39:44;5.33;;;3.30;;
12848;SDS011;6493;50.928;7.172;2023-03-03T18:44:49;5.67;;;3.60;;
12848;SDS011;6493;50.928;7.172;2023-03-03T18:50:14;5.67;;;3.43;;
12848;SDS011;6493;50.928;7.172;2023-03-03T18:55:38;5.13;;;3.40;;
12848;SDS011;6493;50.928;7.172;2023-03-03T19:00:43;3.67;;;2.57;;
12848;SDS011;6493;50.928;7.172;2023-03-03T19:05:50;4.73;;;3.03;;
12848;SDS011;6493;50.928;7.172;2023-03-03T19:10:58;5.97;;;4.00;;
12848;SDS011;6493;50.928;7.172;2023-03-03T19:16:08;5.60;;;3.47;;
12848;SDS011;6493;50.928;7.172;2023-03-03T19:21:24;6.00;;;3.80;;
12848;SDS011;6493;50.928;7.172;2023-03-03T19:26:33;7.37;;;4.27;;
12848;SDS011;6493;50.928;7.172;2023-03-03T19:31:57;7.17;;;3.77;;
12848;SDS011;6493;50.928;7.172;2023-03-03T19:37:18;8.70;;;5.33;;
12848;SDS011;6493;50.928;7.172;2023-03-03T19:42:34;7.30;;;3.77;;
12848;SDS011;6493;50.928;7.172;2023-03-03T19:47:50;5.90;;;4.00;;
12848;SDS011;6493;50.928;7.172;2023-03-03T19:53:04;5.90;;;4.07;;
12848;SDS011;6493;50.928;7.172;2023-03-03T19:58:19;6.60;;;4.13;;
12848;SDS011;6493;50.928;7.172;2023-03-03T20:03:41;4.87;;;3.37;;
12848;SDS011;6493;50.928;7.172;2023-03-03T20:08:56;6.53;;;4.10;;
12848;SDS011;6493;50.928;7.172;2023-03-03T20:14:05;5.73;;;4.33;;
12848;SDS011;6493;50.928;7.172;2023-03-03T20:19:21;7.03;;;4.50;;
12848;SDS011;6493;50.928;7.172;2023-03-03T20:24:37;5.13;;;3.90;;
12848;SDS011;6493;50.928;7.172;2023-03-03T20:30:01;5.17;;;3.27;;
12848;SDS011;6493;50.928;7.172;2023-03-03T20:35:13;6.03;;;4.13;;
12848;SDS011;6493;50.928;7.172;2023-03-03T20:40:29;6.00;;;3.87;;
12848;SDS011;6493;50.928;7.172;2023-03-03T20:45:41;7.00;;;4.27;;
12848;SDS011;6493;50.928;7.172;2023-03-03T20:50:52;8.13;;;4.43;;
12848;SDS011;6493;50.928;7.172;2023-03-03T20:56:06;7.07;;;4.50;;
12848;SDS011;6493;50.928;7.172;2023-03-03T21:01:19;6.57;;;4.03;;
12848;SDS011;6493;50.928;7.172;2023-03-03T21:06:35;7.53;;;4.73;;
12848;SDS011;6493;50.928;7.172;2023-03-03T21:11:43;7.43;;;4.43;;
12848;SDS011;6493;50.928;7.172;2023-03-03T21:16:46;6.83;;;4.07;;
12848;SDS011;6493;50.928;7.172;2023-03-03T21:21:51;6.70;;;4.00;;
12848;SDS011;6493;50.928;7.172;2023-03-03T21:26:57;5.13;;;3.97;;
12848;SDS011;6493;50.928;7.172;2023-03-03T21:32:04;8.17;;;5.17;;
12848;SDS011;6493;50.928;7.172;2023-03-03T21:37:10;7.57;;;5.20;;
12848;SDS011;6493;50.928;7.172;2023-03-03T21:42:25;7.33;;;4.87;;
12848;SDS011;6493;50.928;7.172;2023-03-03T21:47:41;7.57;;;5.07;;
12848;SDS011;6493;50.928;7.172;2023-03-03T21:52:46;10.27;;;6.17;;
12848;SDS011;6493;50.928;7.172;2023-03-03T21:57:51;8.40;;;5.20;;
12848;SDS011;6493;50.928;7.172;2023-03-03T22:02:55;7.50;;;4.93;;
12848;SDS011;6493;50.928;7.172;2023-03-03T22:07:59;9.03;;;5.57;;
12848;SDS011;6493;50.928;7.172;2023-03-03T22:13:04;9.73;;;5.60;;
12848;SDS011;6493;50.928;7.172;2023-03-03T22:18:07;8.87;;;4.67;;
12848;SDS011;6493;50.928;7.172;2023-03-03T22:23:11;7.00;;;4.50;;
12848;SDS011;6493;50.928;7.172;2023-03-03T22:28:16;6.17;;;4.03;;
12848;SDS011;6493;50.928;7.172;2023-03-03T22:33:20;8.83;;;5.50;;
12848;SDS011;6493;50.928;7.172;2023-03-03T22:38:23;13.10;;;8.53;;
12848;SDS011;6493;50.928;7.172;2023-03-03T22:43:28;10.20;;;6.77;;
12848;SDS011;6493;50.928;7.172;2023-03-03T22:48:32;10.77;;;6.80;;
12848;SDS011;6493;50.928;7.172;2023-03-03T22:53:36;11.70;;;7.13;;
12848;SDS011;6493;50.928;7.172;2023-03-03T22:58:41;11.40;;;6.73;;
12848;SDS011;6493;50.928;7.172;2023-03-03T23:03:44;10.10;;;5.97;;
12848;SDS011;6493;50.928;7.172;2023-03-03T23:08:48;7.73;;;5.60;;
12848;SDS011;6493;50.928;7.172;2023-03-03T23:13:53;9.10;;;5.67;;
12848;SDS011;6493;50.928;7.172;2023-03-03T23:18:56;8.10;;;5.20;;
12848;SDS011;6493;50.928;7.172;2023-03-03T23:24:00;7.63;;;4.83;;
12848;SDS011;6493;50.928;7.172;2023-03-03T23:29:05;8.23;;;5.40;;
12848;SDS011;6493;50.928;7.172;2023-03-03T23:34:08;8.10;;;5.43;;
12848;SDS011;6493;50.928;7.172;2023-03-03T23:39:12;9.70;;;6.17;;
12848;SDS011;6493;50.928;7.172;2023-03-03T23:44:17;10.03;;;6.00;;
12848;SDS011;6493;50.928;7.172;2023-03-03T23:49:21;10.83;;;5.70;;
12848;SDS011;6493;50.928;7.172;2023-03-03T23:54:24;9.00;;;5.40;;
12848;SDS011;6493;50.928;7.172;2023-03-03T23:59:30;8.67;;;5.43;;
